createdAt,value
2018-06-11T00:01:39.700Z,19.00
2018-06-11T00:04:08.097Z,18.90
2018-06-11T00:06:36.473Z,18.90
2018-06-11T00:09:07.468Z,18.90
2018-06-11T00:11:36.404Z,18.80
2018-06-11T00:14:05.048Z,18.80
2018-06-11T00:16:33.608Z,18.70
2018-06-11T00:19:02.029Z,18.70
2018-06-11T00:21:30.485Z,18.70
2018-06-11T00:23:58.873Z,18.70
2018-06-11T00:26:27.268Z,18.70
2018-06-11T00:28:55.673Z,18.60
2018-06-11T00:31:24.213Z,18.40
2018-06-11T00:33:52.599Z,18.40
2018-06-11T00:36:20.982Z,18.30
2018-06-11T00:38:49.426Z,18.20
2018-06-11T00:41:17.865Z,18.20
2018-06-11T00:43:46.257Z,18.20
2018-06-11T00:46:14.701Z,18.20
2018-06-11T00:48:43.109Z,18.20
2018-06-11T00:51:11.613Z,18.20
2018-06-11T00:53:40.006Z,18.20
2018-06-11T00:56:09.277Z,18.20
2018-06-11T00:58:37.740Z,18.20
2018-06-11T01:01:06.284Z,18.20
2018-06-11T01:03:34.662Z,18.20
2018-06-11T01:06:03.108Z,18.20
2018-06-11T01:08:32.333Z,18.20
2018-06-11T01:11:00.773Z,18.20
2018-06-11T01:13:29.243Z,18.20
2018-06-11T01:15:57.668Z,18.20
2018-06-11T01:18:26.086Z,18.20
2018-06-11T01:20:54.516Z,18.20
2018-06-11T01:25:51.121Z,18.10
2018-06-11T01:28:19.516Z,18.20
2018-06-11T01:30:47.929Z,18.10
2018-06-11T01:33:16.323Z,18.10
2018-06-11T01:35:44.737Z,18.10
2018-06-11T01:38:13.131Z,18.10
2018-06-11T01:40:41.548Z,18.10
2018-06-11T01:43:09.942Z,18.10
2018-06-11T01:45:38.368Z,18.10
2018-06-11T01:48:06.766Z,18.10
2018-06-11T01:50:35.164Z,18.10
2018-06-11T01:53:03.572Z,18.10
2018-06-11T01:55:32.108Z,18.10
2018-06-11T01:58:01.008Z,18.10
2018-06-11T02:00:29.435Z,18.10
2018-06-11T02:02:57.829Z,18.00
2018-06-11T02:09:23.610Z,17.90
2018-06-11T02:11:52.125Z,17.90
2018-06-11T02:14:20.496Z,17.90
2018-06-11T02:16:48.901Z,17.90
2018-06-11T02:19:17.307Z,17.90
2018-06-11T02:21:45.724Z,17.80
2018-06-11T02:24:14.100Z,17.80
2018-06-11T02:26:42.521Z,17.70
2018-06-11T02:29:10.899Z,17.40
2018-06-11T02:31:39.365Z,17.30
2018-06-11T02:34:07.742Z,17.30
2018-06-11T02:36:36.161Z,17.20
2018-06-11T02:39:07.338Z,17.10
2018-06-11T02:41:35.825Z,17.10
2018-06-11T02:44:04.237Z,17.10
2018-06-11T02:46:32.652Z,17.10
2018-06-11T02:49:01.070Z,17.10
2018-06-11T02:51:29.497Z,17.10
2018-06-11T02:53:57.881Z,17.10
2018-06-11T02:56:26.298Z,17.20
2018-06-11T02:58:54.716Z,17.20
2018-06-11T03:01:23.109Z,17.30
2018-06-11T03:03:51.513Z,17.20
2018-06-11T03:06:19.941Z,17.20
2018-06-11T03:08:48.366Z,17.20
2018-06-11T03:11:16.764Z,17.20
2018-06-11T03:13:45.169Z,17.20
2018-06-11T03:16:13.557Z,17.20
2018-06-11T03:18:41.969Z,17.30
2018-06-11T03:21:10.365Z,17.30
2018-06-11T03:23:38.821Z,17.30
2018-06-11T03:26:07.198Z,17.30
2018-06-11T03:28:35.608Z,17.40
2018-06-11T03:31:03.986Z,17.40
2018-06-11T03:33:32.428Z,17.40
2018-06-11T03:36:00.843Z,17.30
2018-06-11T03:38:29.253Z,17.30
2018-06-11T03:40:57.668Z,17.30
2018-06-11T03:43:26.081Z,17.30
2018-06-11T03:45:54.496Z,17.30
2018-06-11T03:48:22.922Z,17.10
2018-06-11T03:50:51.486Z,17.10
2018-06-11T03:53:19.893Z,17.10
2018-06-11T03:55:48.270Z,17.10
2018-06-11T03:58:16.753Z,17.20
2018-06-11T04:00:45.134Z,17.20
2018-06-11T04:03:13.593Z,17.20
2018-06-11T04:05:41.981Z,17.30
2018-06-11T04:08:10.399Z,17.40
2018-06-11T04:10:38.817Z,17.40
2018-06-11T04:13:07.206Z,17.40
2018-06-11T04:15:35.597Z,17.50
2018-06-11T04:18:04.048Z,17.60
2018-06-11T04:20:32.519Z,17.60
2018-06-11T04:23:00.940Z,17.50
2018-06-11T04:25:29.328Z,17.50
2018-06-11T04:30:25.835Z,17.60
2018-06-11T04:35:22.333Z,17.70
2018-06-11T04:37:50.764Z,17.80
2018-06-11T04:40:19.250Z,17.80
2018-06-11T04:42:47.679Z,17.80
2018-06-11T04:45:16.093Z,18.00
2018-06-11T04:47:44.509Z,18.00
2018-06-11T04:50:12.891Z,18.10
2018-06-11T04:52:41.316Z,18.20
2018-06-11T04:55:09.776Z,18.20
2018-06-11T04:57:38.147Z,18.30
2018-06-11T05:00:06.592Z,18.40
2018-06-11T05:02:34.986Z,18.40
2018-06-11T05:05:03.420Z,18.70
2018-06-11T05:07:31.832Z,18.70
2018-06-11T05:10:00.442Z,19.00
2018-06-11T05:12:28.832Z,19.10
2018-06-11T05:14:57.232Z,19.10
2018-06-11T05:17:25.633Z,19.20
2018-06-11T05:19:54.217Z,19.50
2018-06-11T05:22:22.604Z,19.60
2018-06-11T05:24:51.014Z,19.90
2018-06-11T05:27:19.404Z,20.00
2018-06-11T05:29:47.825Z,20.10
2018-06-11T05:32:16.213Z,20.20
2018-06-11T05:34:44.646Z,20.30
2018-06-11T05:37:13.129Z,20.40
2018-06-11T05:39:41.539Z,20.50
2018-06-11T05:42:09.935Z,20.70
2018-06-11T05:44:38.359Z,20.80
2018-06-11T05:47:06.764Z,20.90
2018-06-11T05:49:35.196Z,20.90
2018-06-11T05:52:03.745Z,21.30
2018-06-11T05:54:32.367Z,21.50
2018-06-11T05:57:00.744Z,21.70
2018-06-11T05:59:29.198Z,22.10
2018-06-11T06:01:57.581Z,22.30
2018-06-11T06:04:25.984Z,23.20
2018-06-11T06:06:54.492Z,23.30
2018-06-11T06:09:22.897Z,23.80
2018-06-11T06:11:51.276Z,24.30
2018-06-11T06:14:19.840Z,24.60
2018-06-11T06:16:48.181Z,25.00
2018-06-11T06:19:16.593Z,25.60
2018-06-11T06:21:44.984Z,26.20
2018-06-11T06:24:13.449Z,26.30
2018-06-11T06:26:41.920Z,26.60
2018-06-11T06:29:10.265Z,26.80
2018-06-11T06:31:38.678Z,27.50
2018-06-11T06:34:07.153Z,28.60
2018-06-11T06:36:35.531Z,29.40
2018-06-11T06:39:06.029Z,29.80
2018-06-11T06:41:34.426Z,30.70
2018-06-11T06:44:03.161Z,31.50
2018-06-11T06:46:31.580Z,32.20
2018-06-11T06:49:00.310Z,32.70
2018-06-11T06:51:28.753Z,32.40
2018-06-11T06:53:57.137Z,32.40
2018-06-11T06:56:25.556Z,32.80
2018-06-11T06:58:53.996Z,33.40
2018-06-11T07:01:22.409Z,33.60
2018-06-11T07:03:50.810Z,34.20
2018-06-11T07:06:19.225Z,35.00
2018-06-11T07:08:47.603Z,35.70
2018-06-11T07:11:16.026Z,36.30
2018-06-11T07:13:44.464Z,36.60
2018-06-11T07:16:12.957Z,36.50
2018-06-11T07:18:41.362Z,36.90
2018-06-11T07:21:09.773Z,36.70
2018-06-11T07:23:38.156Z,35.00
2018-06-11T07:26:06.608Z,34.40
2018-06-11T07:28:35.147Z,35.10
2018-06-11T07:31:03.564Z,35.80
2018-06-11T07:33:31.955Z,36.60
2018-06-11T07:36:00.575Z,36.90
2018-06-11T07:38:28.954Z,37.60
2018-06-11T07:40:57.414Z,38.60
2018-06-11T07:43:25.817Z,39.30
2018-06-11T07:45:54.382Z,40.20
2018-06-11T07:48:22.769Z,40.80
2018-06-11T07:50:51.187Z,40.80
2018-06-11T07:53:19.577Z,40.40
2018-06-11T07:55:47.999Z,40.80
2018-06-11T07:58:16.428Z,40.80
2018-06-11T08:00:44.885Z,39.70
2018-06-11T08:03:13.353Z,40.00
2018-06-11T08:05:41.759Z,40.20
2018-06-11T08:08:10.120Z,40.70
2018-06-11T08:10:38.552Z,40.40
2018-06-11T08:13:06.938Z,39.90
2018-06-11T08:15:35.462Z,40.00
2018-06-11T08:18:03.861Z,39.60
2018-06-11T08:20:32.285Z,40.60
2018-06-11T08:25:28.789Z,40.10
2018-06-11T08:27:57.182Z,41.10
2018-06-11T08:30:25.587Z,42.20
2018-06-11T08:32:54.032Z,42.40
2018-06-11T08:35:22.471Z,42.30
2018-06-11T08:37:50.865Z,42.40
2018-06-11T08:40:19.249Z,42.20
2018-06-11T08:42:47.702Z,42.50
2018-06-11T08:45:16.108Z,42.40
2018-06-11T08:47:44.516Z,43.00
2018-06-11T08:50:12.974Z,42.90
2018-06-11T08:52:41.324Z,42.20
2018-06-11T08:55:09.761Z,41.90
2018-06-11T08:57:38.208Z,39.20
2018-06-11T09:00:07.415Z,39.30
2018-06-11T09:02:35.901Z,39.90
2018-06-11T09:05:04.350Z,41.60
2018-06-11T09:07:32.790Z,41.80
2018-06-11T09:10:01.237Z,41.90
2018-06-11T09:12:29.702Z,41.60
2018-06-11T09:14:58.084Z,41.80
2018-06-11T09:17:26.734Z,40.90
2018-06-11T09:19:55.113Z,39.50
2018-06-11T09:22:23.526Z,38.80
2018-06-11T09:24:51.941Z,40.10
2018-06-11T09:27:20.337Z,40.80
2018-06-11T09:29:48.732Z,40.40
2018-06-11T09:32:17.133Z,40.50
2018-06-11T09:34:45.504Z,40.80
2018-06-11T09:37:13.924Z,40.70
2018-06-11T09:39:42.304Z,40.70
2018-06-11T09:42:10.735Z,42.80
2018-06-11T09:44:39.114Z,43.00
2018-06-11T09:49:35.741Z,42.50
2018-06-11T09:52:04.165Z,41.40
2018-06-11T09:54:32.561Z,40.70
2018-06-11T09:57:01.429Z,40.60
2018-06-11T09:59:29.876Z,40.40
2018-06-11T10:01:58.349Z,40.00
2018-06-11T10:04:26.874Z,40.20
2018-06-11T10:06:55.316Z,40.10
2018-06-11T10:09:23.712Z,40.60
2018-06-11T10:11:52.124Z,40.60
2018-06-11T10:14:20.515Z,41.30
2018-06-11T10:16:49.093Z,41.70
2018-06-11T10:19:17.484Z,41.10
2018-06-11T10:21:46.003Z,42.10
2018-06-11T10:24:14.407Z,43.10
2018-06-11T10:26:42.828Z,43.50
2018-06-11T10:29:11.235Z,43.30
2018-06-11T10:31:39.653Z,42.80
2018-06-11T10:34:08.201Z,41.60
2018-06-11T10:36:36.600Z,41.30
2018-06-11T10:39:07.518Z,41.30
2018-06-11T10:41:35.930Z,41.30
2018-06-11T10:44:04.402Z,40.90
2018-06-11T10:49:00.917Z,40.60
2018-06-11T10:51:29.348Z,40.40
2018-06-11T10:53:57.773Z,37.30
2018-06-11T10:56:26.178Z,35.60
2018-06-11T10:58:54.622Z,34.20
2018-06-11T11:01:23.016Z,33.20
2018-06-11T11:03:51.430Z,32.70
2018-06-11T11:06:19.831Z,32.30
2018-06-11T11:08:48.378Z,32.30
2018-06-11T11:11:16.765Z,32.70
2018-06-11T11:13:45.189Z,32.60
2018-06-11T11:16:13.618Z,32.30
2018-06-11T11:18:42.021Z,31.80
2018-06-11T11:21:10.406Z,31.70
2018-06-11T11:23:38.821Z,31.80
2018-06-11T11:26:07.452Z,31.90
2018-06-11T11:28:35.872Z,31.70
2018-06-11T11:31:04.310Z,31.40
2018-06-11T11:33:32.728Z,31.20
2018-06-11T11:36:01.133Z,31.00
2018-06-11T11:38:29.596Z,30.60
2018-06-11T11:40:57.974Z,30.60
2018-06-11T11:45:54.476Z,30.50
2018-06-11T11:48:22.876Z,30.60
2018-06-11T11:50:51.256Z,30.40
2018-06-11T11:53:19.662Z,30.20
2018-06-11T11:55:48.072Z,30.30
2018-06-11T11:58:16.526Z,30.30
2018-06-11T12:00:44.936Z,30.20
2018-06-11T12:03:13.336Z,30.00
2018-06-11T12:05:41.767Z,30.00
2018-06-11T12:08:10.193Z,29.90
2018-06-11T12:10:38.660Z,29.80
2018-06-11T12:13:07.081Z,29.70
2018-06-11T12:15:35.489Z,29.50
2018-06-11T12:18:03.960Z,29.50
2018-06-11T12:20:32.356Z,29.70
2018-06-11T12:23:00.745Z,29.80
2018-06-11T12:25:29.205Z,29.90
2018-06-11T12:27:57.585Z,29.90
2018-06-11T12:30:26.003Z,29.80
2018-06-11T12:32:54.400Z,30.00
2018-06-11T12:35:22.829Z,30.10
2018-06-11T12:37:51.205Z,30.00
2018-06-11T12:40:19.612Z,30.00
2018-06-11T12:42:48.105Z,29.90
2018-06-11T12:45:16.549Z,29.90
2018-06-11T12:47:45.162Z,30.00
2018-06-11T12:50:13.572Z,30.00
2018-06-11T12:52:42.040Z,30.30
2018-06-11T12:55:10.430Z,30.30
2018-06-11T12:57:38.840Z,30.40
2018-06-11T13:00:07.276Z,30.20
2018-06-11T13:02:35.701Z,29.80
2018-06-11T13:05:04.160Z,29.80
2018-06-11T13:07:32.537Z,29.80
2018-06-11T13:10:00.962Z,29.90
2018-06-11T13:12:29.461Z,29.80
2018-06-11T13:14:57.908Z,29.90
2018-06-11T13:17:27.184Z,29.90
2018-06-11T13:19:55.594Z,29.70
2018-06-11T13:22:23.981Z,29.60
2018-06-11T13:24:52.384Z,29.40
2018-06-11T13:27:20.813Z,29.30
2018-06-11T13:29:49.419Z,29.50
2018-06-11T13:32:17.832Z,29.40
2018-06-11T13:34:46.274Z,29.00
2018-06-11T13:37:14.685Z,28.90
2018-06-11T13:39:43.105Z,28.40
2018-06-11T13:42:11.589Z,28.10
2018-06-11T13:44:40.051Z,28.10
2018-06-11T13:47:08.550Z,27.90
2018-06-11T13:49:36.970Z,27.70
2018-06-11T13:52:05.393Z,27.50
2018-06-11T13:54:33.828Z,27.40
2018-06-11T13:57:02.333Z,27.40
2018-06-11T13:59:30.726Z,27.10
2018-06-11T14:01:59.169Z,27.00
2018-06-11T14:06:55.662Z,26.70
2018-06-11T14:09:24.065Z,26.60
2018-06-11T14:11:52.493Z,26.50
2018-06-11T14:14:20.893Z,26.40
2018-06-11T14:16:49.357Z,26.30
2018-06-11T14:19:17.790Z,26.20
2018-06-11T14:21:46.191Z,26.10
2018-06-11T14:24:14.589Z,26.20
2018-06-11T14:26:43.036Z,26.20
2018-06-11T14:29:11.430Z,26.50
2018-06-11T14:31:39.857Z,26.90
2018-06-11T14:34:08.299Z,27.60
2018-06-11T14:36:36.709Z,27.60
2018-06-11T14:39:08.234Z,28.10
2018-06-11T14:41:36.673Z,28.10
2018-06-11T14:44:05.060Z,28.50
2018-06-11T14:46:33.478Z,28.50
2018-06-11T14:49:01.877Z,28.80
2018-06-11T14:51:30.365Z,29.00
2018-06-11T14:53:58.745Z,29.00
2018-06-11T14:56:27.153Z,28.80
2018-06-11T14:58:55.560Z,28.60
2018-06-11T15:01:24.022Z,28.50
2018-06-11T15:03:52.396Z,28.40
2018-06-11T15:06:20.825Z,28.10
2018-06-11T15:08:50.107Z,28.10
2018-06-11T15:11:18.537Z,27.80
2018-06-11T15:13:46.932Z,27.60
2018-06-11T15:16:15.337Z,27.30
2018-06-11T15:18:43.730Z,27.20
2018-06-11T15:21:12.157Z,26.90
2018-06-11T15:23:40.560Z,26.80
2018-06-11T15:26:09.183Z,26.70
2018-06-11T15:28:37.596Z,26.70
2018-06-11T15:31:06.034Z,26.70
2018-06-11T15:33:34.416Z,26.50
2018-06-11T15:36:02.877Z,26.60
2018-06-11T15:38:31.321Z,26.60
2018-06-11T15:40:59.765Z,26.70
2018-06-11T15:43:28.171Z,26.70
2018-06-11T15:45:56.565Z,26.80
2018-06-11T15:48:25.030Z,26.80
2018-06-11T15:50:53.409Z,26.80
2018-06-11T15:53:21.847Z,26.90
2018-06-11T15:55:50.254Z,26.90
2018-06-11T15:58:18.757Z,27.10
2018-06-11T16:00:47.209Z,27.10
2018-06-11T16:03:15.621Z,27.40
2018-06-11T16:05:44.254Z,27.40
2018-06-11T16:08:12.660Z,27.60
2018-06-11T16:10:41.064Z,27.60
2018-06-11T16:13:09.746Z,27.60
2018-06-11T16:15:38.194Z,27.40
2018-06-11T16:18:06.613Z,27.40
2018-06-11T16:20:35.189Z,27.20
2018-06-11T16:23:03.616Z,27.10
2018-06-11T16:25:32.014Z,27.00
2018-06-11T16:28:00.437Z,27.00
2018-06-11T16:30:28.878Z,27.00
2018-06-11T16:32:57.344Z,26.80
2018-06-11T16:37:54.105Z,26.60
2018-06-11T16:40:22.598Z,26.50
2018-06-11T16:42:51.938Z,26.50
2018-06-11T16:45:20.651Z,26.60
2018-06-11T16:47:49.181Z,26.60
2018-06-11T16:50:17.642Z,26.50
2018-06-11T16:54:10.761Z,26.50
2018-06-11T16:56:39.269Z,26.50
2018-06-11T16:59:07.821Z,26.50
2018-06-11T17:01:40.172Z,26.40
2018-06-11T17:04:10.230Z,26.40
2018-06-11T17:06:38.620Z,26.40
2018-06-11T17:09:08.507Z,26.40
2018-06-11T17:11:37.576Z,26.30
2018-06-11T17:14:06.034Z,26.30
2018-06-11T17:16:34.530Z,26.20
2018-06-11T17:19:02.941Z,26.10
2018-06-11T17:23:59.476Z,26.10
2018-06-11T17:26:27.913Z,26.10
2018-06-11T17:28:56.358Z,26.10
2018-06-11T17:31:24.776Z,26.10
2018-06-11T17:33:53.219Z,26.00
2018-06-11T17:36:21.626Z,26.00
2018-06-11T17:38:50.057Z,25.90
2018-06-11T17:41:18.460Z,25.70
2018-06-11T17:43:46.874Z,25.50
2018-06-11T17:46:15.269Z,25.30
2018-06-11T17:48:43.684Z,25.20
2018-06-11T17:51:12.125Z,25.10
2018-06-11T17:53:40.528Z,25.00
2018-06-11T17:56:08.952Z,24.80
2018-06-11T17:58:37.407Z,24.60
2018-06-11T18:01:05.845Z,24.50
2018-06-11T18:03:34.372Z,24.50
2018-06-11T18:06:04.206Z,24.20
2018-06-11T18:08:32.686Z,24.00
2018-06-11T18:11:01.074Z,23.90
2018-06-11T18:13:29.490Z,23.70
2018-06-11T18:15:57.913Z,23.60
2018-06-11T18:18:26.325Z,23.60
2018-06-11T18:20:55.092Z,23.40
2018-06-11T18:23:23.481Z,23.30
2018-06-11T18:25:51.925Z,23.10
2018-06-11T18:28:20.361Z,23.00
2018-06-11T18:30:48.814Z,22.90
2018-06-11T18:33:17.327Z,22.80
2018-06-11T18:35:45.735Z,22.60
2018-06-11T18:38:14.129Z,22.50
2018-06-11T18:40:42.580Z,22.40
2018-06-11T18:43:10.964Z,22.30
2018-06-11T18:45:39.370Z,22.30
2018-06-11T18:48:07.787Z,22.30
2018-06-11T18:50:36.216Z,22.20
2018-06-11T18:53:04.612Z,22.20
2018-06-11T18:55:33.095Z,22.00
2018-06-11T18:58:01.498Z,22.00
2018-06-11T19:00:29.937Z,22.00
2018-06-11T19:02:58.327Z,21.90
2018-06-11T19:05:26.749Z,21.80
2018-06-11T19:07:55.149Z,21.80
2018-06-11T19:10:23.604Z,21.70
2018-06-11T19:12:52.005Z,21.70
2018-06-11T19:15:20.400Z,21.60
2018-06-11T19:17:48.866Z,21.60
2018-06-11T19:20:17.299Z,21.60
2018-06-11T19:22:45.729Z,21.50
2018-06-11T19:25:14.189Z,21.50
2018-06-11T19:27:42.893Z,21.50
2018-06-11T19:30:11.455Z,21.40
2018-06-11T19:35:08.094Z,21.40
2018-06-11T19:37:36.525Z,21.30
2018-06-11T19:40:04.944Z,21.30
2018-06-11T19:45:01.502Z,21.20
2018-06-11T19:47:29.931Z,21.20
2018-06-11T19:49:58.386Z,21.10
2018-06-11T19:52:26.733Z,21.00
2018-06-11T19:54:55.106Z,21.00
2018-06-11T19:57:23.513Z,21.00
2018-06-11T19:59:52.000Z,20.90
2018-06-11T20:02:20.362Z,20.90
2018-06-11T20:04:48.775Z,20.90
2018-06-11T20:07:17.168Z,20.80
2018-06-11T20:09:45.578Z,20.70
2018-06-11T20:12:13.996Z,20.70
2018-06-11T20:14:42.425Z,20.70
2018-06-11T20:17:10.827Z,20.60
2018-06-11T20:19:39.252Z,20.60
2018-06-11T20:22:07.648Z,20.60
2018-06-11T20:27:04.285Z,20.40
2018-06-11T20:29:32.691Z,20.40
2018-06-11T20:32:01.098Z,20.30
2018-06-11T20:34:29.521Z,20.30
2018-06-11T20:36:57.896Z,20.30
2018-06-11T20:41:54.490Z,20.10
2018-06-11T20:44:22.888Z,20.10
2018-06-11T20:46:51.341Z,20.10
2018-06-11T20:49:19.752Z,20.10
2018-06-11T20:51:48.148Z,20.00
2018-06-11T20:54:16.524Z,20.00
2018-06-11T20:56:44.945Z,20.00
2018-06-11T20:59:13.352Z,20.00
2018-06-11T21:01:41.825Z,20.00
2018-06-11T21:04:10.201Z,20.00
2018-06-11T21:06:38.608Z,20.00
2018-06-11T21:09:08.222Z,20.00
2018-06-11T21:11:36.667Z,20.00
2018-06-11T21:14:05.159Z,20.10
2018-06-11T21:16:33.553Z,20.10
2018-06-11T21:19:01.977Z,20.10
2018-06-11T21:21:30.430Z,20.10
2018-06-11T21:23:58.834Z,20.00
2018-06-11T21:26:27.233Z,19.90
2018-06-11T21:28:55.633Z,19.80
2018-06-11T21:31:24.146Z,19.70
2018-06-11T21:33:52.548Z,19.70
2018-06-11T21:36:20.925Z,19.70
2018-06-11T21:38:49.354Z,19.60
2018-06-11T21:41:17.736Z,19.60
2018-06-11T21:43:46.153Z,19.60
2018-06-11T21:46:14.532Z,19.60
2018-06-11T21:48:43.225Z,19.60
2018-06-11T21:51:11.649Z,19.60
2018-06-11T21:53:40.071Z,19.60
2018-06-11T21:56:08.476Z,19.60
2018-06-11T21:58:36.932Z,19.70
2018-06-11T22:01:05.352Z,19.70
2018-06-11T22:03:33.818Z,19.70
2018-06-11T22:06:02.285Z,19.70
2018-06-11T22:08:30.684Z,19.70
2018-06-11T22:10:59.048Z,19.80
2018-06-11T22:13:27.461Z,19.90
2018-06-11T22:15:55.836Z,19.90
2018-06-11T22:18:24.319Z,19.90
2018-06-11T22:20:52.696Z,19.80
2018-06-11T22:23:21.121Z,19.80
2018-06-11T22:25:49.509Z,19.80
2018-06-11T22:28:17.957Z,19.80
2018-06-11T22:30:46.356Z,19.80
2018-06-11T22:33:14.775Z,19.70
2018-06-11T22:35:43.282Z,19.70
2018-06-11T22:38:11.707Z,19.70
2018-06-11T22:40:40.092Z,19.70
2018-06-11T22:43:08.495Z,19.60
2018-06-11T22:45:36.885Z,19.60
2018-06-11T22:48:05.284Z,19.60
2018-06-11T22:50:33.680Z,19.60
2018-06-11T22:53:02.122Z,19.50
2018-06-11T22:55:30.508Z,19.50
2018-06-11T22:57:58.951Z,19.40
2018-06-11T23:00:35.152Z,19.40
2018-06-11T23:03:03.613Z,19.30
2018-06-11T23:05:31.997Z,19.30
2018-06-11T23:08:00.462Z,19.30
2018-06-11T23:10:29.053Z,19.20
2018-06-11T23:15:25.585Z,19.20
2018-06-11T23:17:53.966Z,19.20
2018-06-11T23:20:22.399Z,19.10
2018-06-11T23:22:50.804Z,19.10
2018-06-11T23:25:19.205Z,19.00
2018-06-11T23:27:47.596Z,19.00
2018-06-11T23:32:44.186Z,18.90
2018-06-11T23:35:12.616Z,18.80
2018-06-11T23:37:41.033Z,18.80
2018-06-11T23:40:09.511Z,18.80
2018-06-11T23:42:37.990Z,18.70
2018-06-11T23:45:06.505Z,18.60
2018-06-11T23:47:34.907Z,18.60
2018-06-11T23:50:03.524Z,18.50
2018-06-11T23:52:31.904Z,18.50
2018-06-11T23:55:00.328Z,18.40
2018-06-11T23:57:28.700Z,18.40
2018-06-11T23:59:57.143Z,18.30
